createdAt,value
2022-08-03T00:00:26.587Z,1.08
2022-08-03T00:01:23.329Z,1.10
2022-08-03T00:02:19.945Z,1.20
2022-08-03T00:03:16.749Z,1.38
2022-08-03T00:04:13.447Z,1.30
2022-08-03T00:05:10.093Z,1.20
2022-08-03T00:06:07.371Z,1.25
2022-08-03T00:07:04.032Z,1.10
2022-08-03T00:08:01.346Z,1.20
2022-08-03T00:08:58.164Z,1.10
2022-08-03T00:09:54.747Z,1.45
2022-08-03T00:10:51.417Z,1.20
2022-08-03T00:11:48.046Z,1.25
2022-08-03T00:12:47.935Z,1.20
2022-08-03T00:13:44.626Z,1.38
2022-08-03T00:14:41.409Z,1.10
2022-08-03T00:15:40.497Z,1.20
2022-08-03T00:16:37.463Z,1.08
2022-08-03T00:17:52.720Z,1.33
2022-08-03T00:18:50.551Z,0.80
2022-08-03T00:19:47.160Z,1.00
2022-08-03T00:20:44.334Z,1.10
2022-08-03T00:21:41.020Z,1.10
2022-08-03T00:22:38.298Z,1.10
2022-08-03T00:23:52.493Z,0.90
2022-08-03T00:24:49.489Z,1.15
2022-08-03T00:25:46.385Z,1.10
2022-08-03T00:26:43.104Z,1.05
2022-08-03T00:27:39.757Z,1.40
2022-08-03T00:28:36.726Z,1.38
2022-08-03T00:29:33.403Z,1.20
2022-08-03T00:30:50.180Z,1.00
2022-08-03T00:31:52.183Z,0.90
2022-08-03T00:32:55.930Z,0.90
2022-08-03T00:33:58.122Z,0.90
2022-08-03T00:34:58.856Z,1.27
2022-08-03T00:35:55.908Z,1.00
2022-08-03T00:36:52.529Z,1.10
2022-08-03T00:37:49.421Z,0.90
2022-08-03T00:38:46.026Z,1.10
2022-08-03T00:39:46.324Z,1.10
2022-08-03T00:40:43.002Z,1.00
2022-08-03T00:41:39.630Z,1.10
2022-08-03T00:42:46.910Z,1.00
2022-08-03T00:43:44.989Z,0.88
2022-08-03T00:44:42.844Z,0.90
2022-08-03T00:45:41.943Z,1.08
2022-08-03T00:46:38.543Z,0.90
2022-08-03T00:47:35.129Z,1.20
2022-08-03T00:48:33.694Z,0.90
2022-08-03T00:49:30.680Z,1.13
2022-08-03T00:50:30.018Z,1.40
2022-08-03T00:51:27.091Z,1.15
2022-08-03T00:52:23.746Z,0.82
2022-08-03T00:53:20.766Z,1.10
2022-08-03T00:54:18.016Z,1.17
2022-08-03T00:55:15.463Z,1.20
2022-08-03T00:56:15.913Z,1.10
2022-08-03T00:57:12.659Z,1.30
2022-08-03T00:58:11.254Z,1.20
2022-08-03T00:59:09.853Z,1.10
2022-08-03T01:00:09.145Z,0.95
2022-08-03T01:01:07.304Z,1.02
2022-08-03T01:02:04.103Z,1.05
2022-08-03T01:03:00.702Z,1.27
2022-08-03T01:03:57.295Z,1.30
2022-08-03T01:04:53.941Z,1.23
2022-08-03T01:06:00.678Z,1.50
2022-08-03T01:07:21.996Z,1.20
2022-08-03T01:08:44.173Z,1.20
2022-08-03T01:09:54.299Z,1.27
2022-08-03T01:11:17.764Z,1.42
2022-08-03T01:12:25.336Z,1.38
2022-08-03T01:14:01.847Z,1.23
2022-08-03T01:15:15.811Z,1.30
2022-08-03T01:16:38.752Z,1.30
2022-08-03T01:17:51.509Z,1.15
2022-08-03T01:19:23.228Z,1.10
2022-08-03T01:20:22.284Z,1.00
2022-08-03T01:21:28.653Z,1.08
2022-08-03T01:22:46.442Z,1.30
2022-08-03T01:24:03.364Z,1.13
2022-08-03T01:25:05.860Z,1.35
2022-08-03T01:28:44.551Z,1.40
2022-08-03T01:29:50.544Z,1.33
2022-08-03T01:30:49.270Z,1.30
2022-08-03T01:32:53.304Z,0.93
2022-08-03T01:33:36.422Z,1.13
2022-08-03T01:34:40.821Z,1.13
2022-08-03T01:35:47.362Z,1.40
2022-08-03T01:36:51.230Z,1.23
2022-08-03T01:37:55.937Z,1.20
2022-08-03T01:38:58.011Z,1.20
2022-08-03T01:39:57.899Z,1.58
2022-08-03T01:40:56.660Z,1.20
2022-08-03T01:41:59.825Z,1.30
2022-08-03T01:42:59.534Z,1.30
2022-08-03T01:44:30.097Z,1.30
2022-08-03T01:45:18.795Z,1.30
2022-08-03T01:46:17.314Z,1.20
2022-08-03T01:47:15.837Z,1.40
2022-08-03T01:48:16.007Z,1.50
2022-08-03T01:49:13.876Z,1.27
2022-08-03T01:50:12.233Z,1.42
2022-08-03T01:51:10.704Z,1.35
2022-08-03T01:52:08.987Z,1.42
2022-08-03T01:53:07.935Z,1.33
2022-08-03T01:54:05.460Z,1.40
2022-08-03T01:55:03.945Z,1.42
2022-08-03T01:56:02.683Z,1.55
2022-08-03T01:56:59.837Z,1.40
2022-08-03T01:58:04.904Z,1.42
2022-08-03T01:59:04.127Z,1.40
2022-08-03T02:00:01.964Z,1.48
2022-08-03T02:01:01.601Z,1.20
2022-08-03T02:02:28.311Z,1.38
2022-08-03T02:03:18.547Z,1.30
2022-08-03T02:04:18.273Z,1.10
2022-08-03T02:05:16.476Z,1.30
2022-08-03T02:07:02.611Z,1.20
2022-08-03T02:07:33.094Z,1.38
2022-08-03T02:08:32.125Z,1.70
2022-08-03T02:09:30.982Z,1.17
2022-08-03T02:10:35.209Z,1.20
2022-08-03T02:11:34.997Z,1.27
2022-08-03T02:12:32.929Z,1.40
2022-08-03T02:13:33.321Z,1.35
2022-08-03T02:14:31.464Z,1.20
2022-08-03T02:15:30.513Z,1.27
2022-08-03T02:16:29.898Z,1.10
2022-08-03T02:17:39.278Z,1.10
2022-08-03T02:18:40.233Z,1.38
2022-08-03T02:19:37.787Z,1.30
2022-08-03T02:20:37.927Z,1.50
2022-08-03T02:21:56.802Z,1.38
2022-08-03T02:22:54.347Z,1.33
2022-08-03T02:23:51.008Z,1.30
2022-08-03T02:24:49.315Z,1.30
2022-08-03T02:25:53.733Z,1.23
2022-08-03T02:27:55.152Z,1.10
2022-08-03T02:28:55.806Z,1.50
2022-08-03T02:29:58.635Z,1.40
2022-08-03T02:30:56.757Z,1.30
2022-08-03T02:31:57.989Z,1.25
2022-08-03T02:32:59.310Z,1.45
2022-08-03T02:34:07.329Z,1.40
2022-08-03T02:35:06.974Z,1.50
2022-08-03T02:36:05.426Z,1.45
2022-08-03T02:37:04.651Z,1.35
2022-08-03T02:38:04.088Z,1.20
2022-08-03T02:39:01.860Z,1.10
2022-08-03T02:40:02.821Z,1.20
2022-08-03T02:41:01.462Z,1.55
2022-08-03T02:42:03.181Z,1.70
2022-08-03T02:43:05.290Z,1.65
2022-08-03T02:44:07.527Z,1.60
2022-08-03T02:45:07.956Z,1.83
2022-08-03T02:46:09.407Z,1.67
2022-08-03T02:47:09.780Z,1.90
2022-08-03T02:48:08.135Z,1.80
2022-08-03T02:49:40.443Z,1.65
2022-08-03T02:50:25.282Z,2.03
2022-08-03T02:51:23.370Z,1.88
2022-08-03T02:52:26.744Z,1.85
2022-08-03T02:53:24.538Z,1.90
2022-08-03T02:54:23.154Z,1.83
2022-08-03T02:55:21.960Z,2.00
2022-08-03T02:56:19.694Z,1.90
2022-08-03T02:57:19.421Z,2.00
2022-08-03T02:58:21.233Z,2.20
2022-08-03T02:59:20.062Z,1.77
2022-08-03T03:00:27.174Z,2.03
2022-08-03T03:01:27.266Z,1.40
2022-08-03T03:02:25.198Z,1.30
2022-08-03T03:03:23.219Z,1.60
2022-08-03T03:04:27.554Z,1.67
2022-08-03T03:05:54.625Z,1.40
2022-08-03T03:06:49.127Z,1.55
2022-08-03T03:07:52.110Z,2.00
2022-08-03T03:08:50.529Z,2.20
2022-08-03T03:09:47.543Z,1.85
2022-08-03T03:10:45.059Z,2.10
2022-08-03T03:11:44.231Z,1.60
2022-08-03T03:12:41.996Z,1.70
2022-08-03T03:13:42.282Z,2.03
2022-08-03T03:14:39.890Z,1.55
2022-08-03T03:15:39.400Z,1.60
2022-08-03T03:16:36.456Z,1.60
2022-08-03T03:17:34.938Z,1.65
2022-08-03T03:18:33.464Z,1.50
2022-08-03T03:19:33.219Z,1.70
2022-08-03T03:20:32.270Z,1.30
2022-08-03T03:21:30.339Z,2.10
2022-08-03T03:22:28.157Z,1.70
2022-08-03T03:23:26.860Z,1.67
2022-08-03T03:24:23.893Z,1.40
2022-08-03T03:25:21.541Z,1.65
2022-08-03T03:26:19.418Z,1.80
2022-08-03T03:27:16.681Z,1.45
2022-08-03T03:28:14.616Z,1.73
2022-08-03T03:29:11.434Z,1.60
2022-08-03T03:30:08.986Z,1.30
2022-08-03T03:31:06.827Z,1.52
2022-08-03T03:32:04.209Z,1.73
2022-08-03T03:33:05.952Z,1.88
2022-08-03T03:34:02.885Z,1.75
2022-08-03T03:35:00.183Z,1.27
2022-08-03T03:35:58.640Z,1.60
2022-08-03T03:36:55.431Z,1.50
2022-08-03T03:37:52.696Z,1.50
2022-08-03T03:38:49.418Z,1.83
2022-08-03T03:39:50.427Z,1.85
2022-08-03T03:40:47.800Z,1.50
2022-08-03T03:41:44.741Z,1.75
2022-08-03T03:42:41.750Z,1.80
2022-08-03T03:43:38.547Z,1.42
2022-08-03T03:44:35.245Z,1.40
2022-08-03T03:45:32.188Z,1.70
2022-08-03T03:46:29.319Z,1.42
2022-08-03T03:47:32.555Z,1.77
2022-08-03T03:48:29.741Z,1.77
2022-08-03T03:49:29.337Z,1.70
2022-08-03T03:50:27.467Z,1.90
2022-08-03T03:51:24.108Z,1.65
2022-08-03T03:52:20.784Z,1.63
2022-08-03T03:53:17.622Z,1.60
2022-08-03T03:54:14.292Z,1.60
2022-08-03T03:55:15.165Z,1.77
2022-08-03T03:56:11.812Z,1.75
2022-08-03T03:57:13.155Z,1.58
2022-08-03T03:58:10.476Z,1.48
2022-08-03T03:59:07.133Z,1.75
2022-08-03T04:00:04.743Z,1.77
2022-08-03T04:01:01.802Z,1.60
2022-08-03T04:01:59.385Z,1.50
2022-08-03T04:02:56.338Z,1.85
2022-08-03T04:03:52.990Z,1.90
2022-08-03T04:05:08.399Z,1.75
2022-08-03T04:06:23.818Z,1.48
2022-08-03T04:07:39.420Z,1.55
2022-08-03T04:08:54.745Z,1.48
2022-08-03T04:10:26.594Z,1.35
2022-08-03T04:11:36.838Z,1.50
2022-08-03T04:12:36.309Z,1.70
2022-08-03T04:13:39.731Z,1.80
2022-08-03T04:14:38.424Z,2.40
2022-08-03T04:15:37.819Z,2.10
2022-08-03T04:16:41.868Z,2.03
2022-08-03T04:17:42.554Z,2.20
2022-08-03T04:18:41.688Z,2.10
2022-08-03T04:19:45.518Z,2.10
2022-08-03T04:20:47.715Z,2.10
2022-08-03T04:21:50.774Z,2.00
2022-08-03T04:22:51.436Z,1.55
2022-08-03T04:23:51.492Z,1.55
2022-08-03T04:25:01.459Z,2.00
2022-08-03T04:26:01.561Z,1.30
2022-08-03T04:27:00.915Z,1.48
2022-08-03T04:28:08.185Z,1.63
2022-08-03T04:29:19.644Z,1.27
2022-08-03T04:30:16.543Z,1.75
2022-08-03T04:31:16.251Z,1.70
2022-08-03T04:32:14.607Z,1.30
2022-08-03T04:33:11.594Z,1.70
2022-08-03T04:34:10.078Z,2.17
2022-08-03T04:35:07.861Z,1.70
2022-08-03T04:36:07.074Z,1.67
2022-08-03T04:37:12.034Z,1.83
2022-08-03T04:38:10.326Z,1.50
2022-08-03T04:39:16.523Z,1.73
2022-08-03T04:40:25.404Z,1.60
2022-08-03T04:41:27.839Z,1.83
2022-08-03T04:42:25.821Z,1.33
2022-08-03T04:43:23.008Z,1.70
2022-08-03T04:44:22.087Z,1.70
2022-08-03T04:45:27.270Z,1.48
2022-08-03T04:46:28.175Z,1.67
2022-08-03T04:47:25.501Z,1.52
2022-08-03T04:48:22.690Z,1.60
2022-08-03T04:49:20.921Z,1.80
2022-08-03T04:50:21.331Z,1.60
2022-08-03T04:51:18.671Z,1.60
2022-08-03T04:52:15.757Z,1.50
2022-08-03T04:53:12.770Z,1.77
2022-08-03T04:54:13.375Z,1.40
2022-08-03T04:55:10.218Z,1.70
2022-08-03T04:56:07.331Z,1.88
2022-08-03T04:57:06.791Z,2.00
2022-08-03T04:58:04.332Z,2.30
2022-08-03T04:59:00.990Z,2.30
2022-08-03T05:00:02.574Z,1.67
2022-08-03T05:01:56.763Z,1.90
2022-08-03T05:02:55.426Z,1.90
2022-08-03T05:03:52.231Z,1.90
2022-08-03T05:04:49.256Z,2.17
2022-08-03T05:05:49.599Z,1.88
2022-08-03T05:06:48.319Z,2.03
2022-08-03T05:07:51.764Z,2.00
2022-08-03T05:08:50.893Z,2.20
2022-08-03T05:09:52.220Z,1.80
2022-08-03T05:10:49.585Z,1.90
2022-08-03T05:11:46.271Z,1.85
2022-08-03T05:12:43.297Z,1.80
2022-08-03T05:13:39.885Z,1.70
2022-08-03T05:14:38.792Z,1.70
2022-08-03T05:15:36.277Z,1.73
2022-08-03T05:16:39.994Z,1.70
2022-08-03T05:17:36.970Z,1.70
2022-08-03T05:18:33.733Z,1.85
2022-08-03T05:19:30.685Z,1.80
2022-08-03T05:20:27.297Z,1.70
2022-08-03T05:21:24.024Z,1.42
2022-08-03T05:22:21.316Z,1.95
2022-08-03T05:23:18.105Z,1.92
2022-08-03T05:24:14.804Z,1.73
2022-08-03T05:25:16.992Z,2.20
2022-08-03T05:26:16.552Z,2.20
2022-08-03T05:27:19.154Z,2.00
2022-08-03T05:28:15.829Z,2.00
2022-08-03T05:29:12.435Z,2.10
2022-08-03T05:30:30.839Z,1.90
2022-08-03T05:31:26.146Z,1.90
2022-08-03T05:32:22.777Z,1.80
2022-08-03T05:33:19.416Z,1.98
2022-08-03T05:34:16.044Z,2.05
2022-08-03T05:36:00.873Z,1.90
2022-08-03T05:36:29.322Z,1.70
2022-08-03T05:37:25.930Z,2.00
2022-08-03T05:38:23.880Z,1.63
2022-08-03T05:39:24.647Z,2.20
2022-08-03T05:40:21.275Z,2.38
2022-08-03T05:41:21.812Z,1.92
2022-08-03T05:42:19.701Z,1.88
2022-08-03T05:43:16.882Z,1.70
2022-08-03T05:44:13.610Z,1.73
2022-08-03T05:45:14.891Z,2.10
2022-08-03T05:46:13.174Z,1.73
2022-08-03T05:47:09.978Z,1.85
2022-08-03T05:48:06.806Z,1.75
2022-08-03T05:49:04.679Z,1.60
2022-08-03T05:50:01.334Z,1.70
2022-08-03T05:50:58.198Z,1.83
2022-08-03T05:52:08.104Z,1.80
2022-08-03T05:53:09.839Z,1.80
2022-08-03T05:54:06.464Z,1.90
2022-08-03T05:55:05.419Z,1.92
2022-08-03T05:56:03.669Z,1.88
2022-08-03T05:57:10.092Z,1.83
2022-08-03T05:58:06.760Z,2.15
2022-08-03T05:59:16.529Z,1.73
2022-08-03T06:00:20.676Z,1.70
2022-08-03T06:01:21.878Z,2.13
2022-08-03T06:02:18.635Z,1.70
2022-08-03T06:03:15.384Z,1.83
2022-08-03T06:04:12.112Z,2.00
2022-08-03T06:05:09.333Z,1.88
2022-08-03T06:06:06.059Z,1.80
2022-08-03T06:07:02.916Z,1.58
2022-08-03T06:07:59.529Z,1.83
2022-08-03T06:08:56.146Z,1.85
2022-08-03T06:10:35.101Z,1.88
2022-08-03T06:11:09.875Z,1.98
2022-08-03T06:12:09.101Z,2.03
2022-08-03T06:13:07.790Z,1.83
2022-08-03T06:14:04.443Z,1.80
2022-08-03T06:15:01.049Z,1.63
2022-08-03T06:15:57.873Z,1.70
2022-08-03T06:16:54.517Z,1.90
2022-08-03T06:17:52.110Z,1.70
2022-08-03T06:18:48.740Z,1.85
2022-08-03T06:19:45.465Z,1.83
2022-08-03T06:20:42.097Z,1.80
2022-08-03T06:21:39.864Z,1.92
2022-08-03T06:22:36.917Z,1.75
2022-08-03T06:23:54.433Z,1.70
2022-08-03T06:24:53.396Z,1.83
2022-08-03T06:25:50.525Z,2.00
2022-08-03T06:26:47.205Z,1.77
2022-08-03T06:27:43.868Z,1.90
2022-08-03T06:28:52.675Z,2.10
2022-08-03T06:29:50.487Z,1.75
2022-08-03T06:30:47.186Z,1.80
2022-08-03T06:31:46.532Z,2.30
2022-08-03T06:32:43.276Z,1.63
2022-08-03T06:34:34.889Z,1.80
2022-08-03T06:35:09.628Z,2.00
2022-08-03T06:36:06.738Z,1.67
2022-08-03T06:37:03.418Z,1.77
2022-08-03T06:38:00.048Z,1.60
2022-08-03T06:39:01.264Z,1.85
2022-08-03T06:39:57.901Z,1.83
2022-08-03T06:40:54.708Z,1.67
2022-08-03T06:41:52.490Z,1.65
2022-08-03T06:42:49.226Z,1.70
2022-08-03T06:44:02.674Z,1.70
2022-08-03T06:45:00.639Z,1.85
2022-08-03T06:45:57.264Z,2.25
2022-08-03T06:46:53.973Z,2.03
2022-08-03T06:48:07.207Z,1.80
2022-08-03T06:49:04.149Z,1.70
2022-08-03T06:50:12.664Z,1.73
2022-08-03T06:52:10.585Z,1.77
2022-08-03T06:53:09.081Z,2.13
2022-08-03T06:54:14.842Z,1.63
2022-08-03T06:55:11.563Z,1.70
2022-08-03T06:56:08.563Z,1.70
2022-08-03T06:57:05.753Z,1.88
2022-08-03T06:58:03.357Z,1.80
2022-08-03T06:59:00.293Z,1.95
2022-08-03T07:00:08.545Z,1.60
2022-08-03T07:01:08.440Z,1.55
2022-08-03T07:02:05.161Z,1.58
2022-08-03T07:03:03.193Z,2.10
2022-08-03T07:04:00.613Z,2.20
2022-08-03T07:04:57.595Z,1.70
2022-08-03T07:05:54.295Z,1.70
2022-08-03T07:06:51.008Z,1.73
2022-08-03T07:07:47.747Z,1.70
2022-08-03T07:08:44.439Z,1.80
2022-08-03T07:09:41.803Z,1.80
2022-08-03T07:10:42.437Z,1.80
2022-08-03T07:11:39.172Z,1.77
2022-08-03T07:12:36.263Z,1.60
2022-08-03T07:13:35.875Z,1.70
2022-08-03T07:14:32.725Z,1.90
2022-08-03T07:15:54.032Z,1.88
2022-08-03T07:16:46.143Z,2.17
2022-08-03T07:17:42.762Z,1.90
2022-08-03T07:18:40.110Z,1.80
2022-08-03T07:19:36.870Z,1.60
2022-08-03T07:20:33.690Z,1.70
2022-08-03T07:21:30.385Z,1.58
2022-08-03T07:22:27.335Z,1.45
2022-08-03T07:23:24.063Z,1.60
2022-08-03T07:24:20.831Z,1.90
2022-08-03T07:25:17.518Z,1.88
2022-08-03T07:26:14.212Z,1.60
2022-08-03T07:27:10.937Z,1.63
2022-08-03T07:28:08.333Z,1.80
2022-08-03T07:29:11.762Z,1.83
2022-08-03T07:30:12.761Z,1.50
2022-08-03T07:31:09.403Z,1.58
2022-08-03T07:32:06.305Z,2.05
2022-08-03T07:33:03.037Z,1.67
2022-08-03T07:33:59.840Z,1.90
2022-08-03T07:35:00.466Z,1.50
2022-08-03T07:35:57.955Z,1.63
2022-08-03T07:36:54.609Z,1.42
2022-08-03T07:37:54.312Z,1.50
2022-08-03T07:38:51.678Z,1.80
2022-08-03T07:39:48.516Z,1.75
2022-08-03T07:40:46.421Z,1.30
2022-08-03T07:41:43.222Z,2.00
2022-08-03T07:42:39.856Z,1.70
2022-08-03T07:43:36.478Z,2.10
2022-08-03T07:44:33.127Z,1.50
2022-08-03T07:45:31.040Z,1.55
2022-08-03T07:46:27.677Z,1.40
2022-08-03T07:47:34.681Z,2.00
2022-08-03T07:48:32.425Z,1.90
2022-08-03T07:49:29.062Z,1.70
2022-08-03T07:50:25.993Z,1.75
2022-08-03T07:51:22.839Z,1.48
2022-08-03T07:52:38.670Z,1.60
2022-08-03T07:53:36.234Z,1.60
2022-08-03T07:54:44.110Z,1.65
2022-08-03T07:55:40.845Z,1.80
2022-08-03T07:56:37.740Z,1.55
2022-08-03T07:57:35.334Z,1.63
2022-08-03T07:58:31.962Z,1.77
2022-08-03T07:59:28.589Z,1.48
2022-08-03T08:00:45.288Z,1.60
2022-08-03T08:01:41.976Z,1.70
2022-08-03T08:02:38.997Z,1.40
2022-08-03T08:03:41.050Z,1.63
2022-08-03T08:04:49.791Z,1.58
2022-08-03T08:05:46.489Z,2.00
2022-08-03T08:06:43.204Z,1.30
2022-08-03T08:07:40.714Z,1.42
2022-08-03T08:08:38.690Z,1.70
2022-08-03T08:09:35.632Z,1.48
2022-08-03T08:10:33.079Z,1.40
2022-08-03T08:11:29.842Z,1.38
2022-08-03T08:12:26.567Z,1.73
2022-08-03T08:13:23.466Z,1.40
2022-08-03T08:14:20.095Z,1.30
2022-08-03T08:15:16.994Z,1.40
2022-08-03T08:16:13.601Z,1.60
2022-08-03T08:17:10.229Z,1.48
2022-08-03T08:18:07.091Z,1.40
2022-08-03T08:19:03.721Z,1.50
2022-08-03T08:20:00.373Z,1.55
2022-08-03T08:20:58.253Z,1.40
2022-08-03T08:22:02.547Z,1.33
2022-08-03T08:23:02.707Z,1.50
2022-08-03T08:24:00.150Z,1.40
2022-08-03T08:25:01.359Z,1.15
2022-08-03T08:25:58.240Z,1.70
2022-08-03T08:26:54.857Z,1.38
2022-08-03T08:28:22.325Z,1.40
2022-08-03T08:29:08.793Z,1.30
2022-08-03T08:30:11.514Z,1.30
2022-08-03T08:31:09.763Z,1.20
2022-08-03T08:32:06.504Z,1.40
2022-08-03T08:33:03.154Z,1.20
2022-08-03T08:34:04.392Z,1.40
2022-08-03T08:35:01.292Z,1.20
2022-08-03T08:35:57.946Z,1.27
2022-08-03T08:36:54.600Z,1.63
2022-08-03T08:37:51.795Z,1.20
2022-08-03T08:38:48.511Z,1.40
2022-08-03T08:39:45.181Z,1.50
2022-08-03T08:40:41.903Z,1.60
2022-08-03T08:41:38.553Z,1.20
2022-08-03T08:42:57.543Z,1.45
2022-08-03T08:43:59.819Z,1.30
2022-08-03T08:44:57.048Z,1.80
2022-08-03T08:45:54.431Z,1.23
2022-08-03T08:46:53.486Z,1.30
2022-08-03T08:47:52.658Z,1.35
2022-08-03T08:48:51.855Z,1.35
2022-08-03T08:50:09.211Z,1.48
2022-08-03T08:51:08.239Z,1.48
2022-08-03T08:52:25.286Z,1.33
2022-08-03T08:53:29.488Z,1.63
2022-08-03T08:54:26.920Z,1.48
2022-08-03T08:55:24.065Z,1.20
2022-08-03T08:56:25.530Z,1.33
2022-08-03T08:57:42.349Z,1.33
2022-08-03T08:58:44.657Z,1.25
2022-08-03T08:59:48.885Z,1.50
2022-08-03T09:00:45.927Z,1.17
2022-08-03T09:01:42.924Z,1.40
2022-08-03T09:02:39.819Z,1.70
2022-08-03T09:03:36.701Z,1.38
2022-08-03T09:04:33.723Z,1.38
2022-08-03T09:05:55.124Z,1.27
2022-08-03T09:07:10.535Z,1.20
2022-08-03T09:08:06.626Z,1.38
2022-08-03T09:09:03.644Z,1.13
2022-08-03T09:10:12.312Z,1.35
2022-08-03T09:11:12.049Z,1.40
2022-08-03T09:12:37.559Z,1.30
2022-08-03T09:13:26.329Z,1.30
2022-08-03T09:14:37.097Z,1.30
2022-08-03T09:15:39.278Z,1.40
2022-08-03T09:16:36.034Z,1.10
2022-08-03T09:17:41.518Z,1.20
2022-08-03T09:18:39.326Z,1.20
2022-08-03T09:19:36.700Z,1.20
2022-08-03T09:20:35.052Z,1.27
2022-08-03T09:21:33.262Z,1.05
2022-08-03T09:22:33.427Z,1.42
2022-08-03T09:24:01.583Z,1.45
2022-08-03T09:25:22.703Z,1.30
2022-08-03T09:26:24.494Z,1.25
2022-08-03T09:27:21.421Z,1.40
2022-08-03T09:28:52.901Z,1.50
2022-08-03T09:29:35.790Z,2.03
2022-08-03T09:30:34.292Z,1.80
2022-08-03T09:31:43.573Z,1.50
2022-08-03T09:32:40.950Z,1.30
2022-08-03T09:33:49.842Z,1.35
2022-08-03T09:34:49.395Z,1.20
2022-08-03T09:35:57.455Z,1.30
2022-08-03T09:36:55.880Z,1.27
2022-08-03T09:38:13.648Z,1.20
2022-08-03T09:39:13.682Z,1.30
2022-08-03T09:40:10.757Z,1.10
2022-08-03T09:41:18.296Z,1.27
2022-08-03T09:42:23.779Z,1.30
2022-08-03T09:43:21.890Z,1.20
2022-08-03T09:44:25.279Z,1.20
2022-08-03T09:45:30.077Z,1.20
2022-08-03T09:46:28.534Z,1.20
2022-08-03T09:47:30.209Z,1.45
2022-08-03T09:48:29.775Z,0.90
2022-08-03T09:49:26.690Z,1.27
2022-08-03T09:50:23.535Z,1.13
2022-08-03T09:51:33.349Z,1.30
2022-08-03T09:52:51.934Z,1.30
2022-08-03T09:53:58.743Z,1.10
2022-08-03T09:54:56.784Z,1.40
2022-08-03T09:56:33.964Z,1.40
2022-08-03T09:57:26.427Z,1.20
2022-08-03T09:58:24.968Z,1.25
2022-08-03T09:59:29.854Z,1.15
2022-08-03T10:00:26.511Z,1.33
2022-08-03T10:01:34.125Z,1.30
2022-08-03T10:02:31.040Z,1.10
2022-08-03T10:03:30.061Z,1.10
2022-08-03T10:04:26.918Z,1.13
2022-08-03T10:05:33.060Z,1.63
2022-08-03T10:06:29.773Z,1.27
2022-08-03T10:07:27.374Z,1.50
2022-08-03T10:08:24.495Z,1.30
2022-08-03T10:09:21.107Z,1.50
2022-08-03T10:10:28.899Z,1.20
2022-08-03T10:11:36.203Z,1.33
2022-08-03T10:12:39.141Z,1.20
2022-08-03T10:13:37.203Z,1.60
2022-08-03T10:14:34.122Z,1.38
2022-08-03T10:16:22.021Z,1.50
2022-08-03T10:16:49.060Z,1.30
2022-08-03T10:17:45.697Z,1.15
2022-08-03T10:18:42.293Z,1.10
2022-08-03T10:19:39.006Z,1.13
2022-08-03T10:20:45.766Z,1.40
2022-08-03T10:21:51.261Z,1.13
2022-08-03T10:22:48.096Z,1.20
2022-08-03T10:23:44.990Z,1.20
2022-08-03T10:25:00.812Z,1.30
2022-08-03T10:26:01.857Z,1.30
2022-08-03T10:27:07.276Z,1.20
2022-08-03T10:28:05.778Z,1.20
2022-08-03T10:29:12.823Z,1.38
2022-08-03T10:30:11.373Z,1.35
2022-08-03T10:31:10.252Z,1.30
2022-08-03T10:32:14.711Z,1.67
2022-08-03T10:33:51.126Z,1.20
2022-08-03T10:34:44.475Z,1.17
2022-08-03T10:35:42.448Z,1.20
2022-08-03T10:36:41.252Z,1.20
2022-08-03T10:37:56.517Z,1.30
2022-08-03T10:38:55.255Z,1.38
2022-08-03T10:39:55.347Z,1.20
2022-08-03T10:40:58.925Z,1.00
2022-08-03T10:41:59.914Z,1.20
2022-08-03T10:43:13.261Z,1.58
2022-08-03T10:44:14.643Z,1.20
2022-08-03T10:45:34.299Z,1.23
2022-08-03T10:46:33.483Z,1.38
2022-08-03T10:47:34.286Z,1.13
2022-08-03T10:48:31.943Z,1.40
2022-08-03T10:49:34.678Z,1.13
2022-08-03T10:50:32.827Z,1.08
2022-08-03T10:51:32.289Z,1.38
2022-08-03T10:52:32.823Z,1.30
2022-08-03T10:53:35.929Z,1.70
2022-08-03T10:55:03.494Z,1.20
2022-08-03T10:56:25.423Z,1.30
2022-08-03T10:57:58.250Z,1.30
2022-08-03T10:58:57.868Z,1.40
2022-08-03T10:59:54.738Z,1.55
2022-08-03T11:00:51.690Z,1.10
2022-08-03T11:01:59.973Z,1.33
2022-08-03T11:03:11.162Z,1.20
2022-08-03T11:04:11.858Z,1.25
2022-08-03T11:05:28.418Z,1.30
2022-08-03T11:06:26.351Z,1.52
2022-08-03T11:07:24.719Z,1.30
2022-08-03T11:08:30.389Z,1.15
2022-08-03T11:09:41.625Z,1.30
2022-08-03T11:10:38.532Z,1.30
2022-08-03T11:11:39.487Z,1.50
2022-08-03T11:12:37.355Z,1.42
2022-08-03T11:13:34.201Z,1.30
2022-08-03T11:14:47.067Z,1.20
2022-08-03T11:15:46.820Z,1.33
2022-08-03T11:16:48.136Z,1.30
2022-08-03T11:18:11.597Z,1.60
2022-08-03T11:19:10.669Z,1.25
2022-08-03T11:20:08.038Z,1.40
2022-08-03T11:21:05.042Z,1.50
2022-08-03T11:22:01.877Z,1.70
2022-08-03T11:23:01.097Z,1.40
2022-08-03T11:24:04.889Z,1.33
2022-08-03T11:25:04.511Z,1.42
2022-08-03T11:26:13.523Z,1.45
2022-08-03T11:27:19.224Z,1.30
2022-08-03T11:28:28.315Z,1.40
2022-08-03T11:29:31.621Z,1.30
2022-08-03T11:30:29.815Z,1.40
2022-08-03T11:31:48.515Z,1.40
2022-08-03T11:32:46.585Z,1.40
2022-08-03T11:35:29.002Z,1.40
2022-08-03T11:36:32.519Z,1.50
2022-08-03T11:37:33.255Z,1.10
2022-08-03T11:38:30.148Z,1.60
2022-08-03T11:39:48.051Z,1.48
2022-08-03T11:40:48.621Z,1.40
2022-08-03T11:41:45.522Z,1.48
2022-08-03T11:42:45.221Z,1.60
2022-08-03T11:43:45.297Z,1.55
2022-08-03T11:44:42.967Z,1.63
2022-08-03T11:46:53.170Z,1.40
2022-08-03T11:47:53.985Z,1.55
2022-08-03T11:48:51.506Z,1.58
2022-08-03T11:49:49.645Z,1.40
2022-08-03T11:50:46.430Z,1.52
2022-08-03T11:51:43.375Z,1.45
2022-08-03T11:52:41.850Z,1.50
2022-08-03T11:53:42.024Z,1.80
2022-08-03T11:54:39.633Z,1.70
2022-08-03T11:55:38.483Z,1.80
2022-08-03T11:56:49.403Z,1.77
2022-08-03T11:59:16.560Z,1.58
2022-08-03T11:59:20.557Z,1.10
2022-08-03T12:00:32.834Z,1.70
2022-08-03T12:01:31.534Z,1.50
2022-08-03T12:02:28.197Z,1.52
2022-08-03T12:03:24.913Z,1.45
2022-08-03T12:04:21.665Z,1.65
2022-08-03T12:05:19.039Z,1.27
2022-08-03T12:06:17.649Z,1.83
2022-08-03T12:07:14.353Z,1.63
2022-08-03T12:08:33.615Z,1.60
2022-08-03T12:09:30.426Z,1.70
2022-08-03T12:10:27.067Z,1.48
2022-08-03T12:11:25.547Z,1.63
2022-08-03T12:12:22.201Z,1.35
2022-08-03T12:14:43.877Z,1.60
2022-08-03T12:14:50.625Z,1.23
2022-08-03T12:15:56.364Z,1.83
2022-08-03T12:16:53.160Z,1.50
2022-08-03T12:17:49.806Z,1.83
2022-08-03T12:18:55.997Z,1.60
2022-08-03T12:19:52.729Z,1.52
2022-08-03T12:20:52.003Z,1.58
2022-08-03T12:21:56.747Z,1.60
2022-08-03T12:22:54.475Z,1.60
2022-08-03T12:23:56.213Z,1.50
2022-08-03T12:24:52.887Z,1.50
2022-08-03T12:25:49.698Z,1.40
2022-08-03T12:26:58.617Z,1.58
2022-08-03T12:28:28.421Z,1.52
2022-08-03T12:29:26.161Z,1.65
2022-08-03T12:30:23.719Z,1.60
2022-08-03T12:31:20.538Z,1.60
2022-08-03T12:32:17.413Z,1.90
2022-08-03T12:33:21.336Z,1.52
2022-08-03T12:34:18.473Z,1.58
2022-08-03T12:35:25.132Z,1.52
2022-08-03T12:36:21.954Z,1.67
2022-08-03T12:37:23.596Z,1.60
2022-08-03T12:38:22.391Z,1.63
2022-08-03T12:39:24.195Z,1.73
2022-08-03T12:40:28.376Z,1.42
2022-08-03T12:41:30.843Z,1.40
2022-08-03T12:42:35.431Z,1.80
2022-08-03T12:43:37.685Z,1.67
2022-08-03T12:44:36.502Z,1.38
2022-08-03T12:45:34.670Z,1.45
2022-08-03T12:46:34.875Z,1.70
2022-08-03T12:47:59.815Z,1.73
2022-08-03T12:49:00.541Z,1.70
2022-08-03T12:49:57.237Z,1.60
2022-08-03T12:51:08.364Z,1.70
2022-08-03T12:52:07.576Z,1.73
2022-08-03T12:53:08.842Z,1.90
2022-08-03T12:54:06.540Z,1.67
2022-08-03T12:55:03.558Z,1.50
2022-08-03T12:56:06.350Z,1.80
2022-08-03T12:57:04.802Z,1.55
2022-08-03T12:58:03.191Z,1.60
2022-08-03T12:58:59.879Z,1.52
2022-08-03T13:00:21.785Z,1.60
2022-08-03T13:01:27.995Z,1.58
2022-08-03T13:02:26.621Z,1.65
2022-08-03T13:03:39.270Z,1.63
2022-08-03T13:04:38.468Z,1.42
2022-08-03T13:05:44.913Z,1.40
2022-08-03T13:06:41.732Z,1.60
2022-08-03T13:07:45.759Z,1.30
2022-08-03T13:08:44.035Z,1.30
2022-08-03T13:09:53.115Z,1.38
2022-08-03T13:10:50.299Z,1.45
2022-08-03T13:11:58.194Z,1.50
2022-08-03T13:13:04.751Z,1.20
2022-08-03T13:14:01.461Z,1.27
2022-08-03T13:15:00.530Z,1.15
2022-08-03T13:15:57.160Z,1.40
2022-08-03T13:16:53.825Z,1.35
2022-08-03T13:17:50.488Z,1.20
2022-08-03T13:18:48.162Z,1.10
2022-08-03T13:19:46.119Z,1.60
2022-08-03T13:20:43.584Z,1.30
2022-08-03T13:21:53.751Z,1.67
2022-08-03T13:23:00.601Z,1.30
2022-08-03T13:23:57.650Z,1.40
2022-08-03T13:24:58.616Z,1.50
2022-08-03T13:25:56.204Z,1.27
2022-08-03T13:26:52.924Z,1.58
2022-08-03T13:28:12.353Z,1.60
2022-08-03T13:29:06.465Z,1.35
2022-08-03T13:30:04.651Z,1.50
2022-08-03T13:31:01.335Z,1.60
2022-08-03T13:31:58.034Z,1.40
2022-08-03T13:32:54.872Z,1.30
2022-08-03T13:33:51.622Z,1.60
2022-08-03T13:34:48.585Z,1.50
2022-08-03T13:35:45.196Z,1.42
2022-08-03T13:37:07.462Z,1.42
2022-08-03T13:37:58.530Z,1.30
2022-08-03T13:38:55.229Z,1.67
2022-08-03T13:39:58.712Z,1.52
2022-08-03T13:40:57.136Z,1.50
2022-08-03T13:41:53.826Z,1.52
2022-08-03T13:42:50.470Z,1.40